Terminal Aerodrome Forecast
Issued by NWS

Home | Current Version | Previous Version | Text Only | Print | Product List | Glossary On
Versions: 1 2 3 4 5 6 7 8 9 10 11 12 13 14
000
FTUS46 KSTO 291734
TAFSAC
TAF
KSAC 291734Z 2918/3018 20006KT P6SM BKN200
     FM300200 24010KT P6SM SCT080
     FM300600 32010KT P6SM SKC
     FM301200 34018G28KT P6SM SKC WS020/33040KT=

USA.gov is the U.S. government's official web portal to all federal, state and local government web resources and services.